Time;durP1;ratioP1;P1;durP2;ratioP2;P2;SDS_P1;SDS_P2;PMS_P1;PMS_P2;Temp;Humidity;BMP_temperature;BMP_pressure;BME280_temperature;BME280_humidity;BME280_pressure;Samples;Min_cycle;Max_cycle;Signal;HPM_P1;HPM_P2
2022/08/06 00:01:14;;;;;;;2.22;0.43;;;14.30;93.80;;;;;;4953672;28;20476;-75
2022/08/06 00:03:46;;;;;;;3.00;0.40;;;14.20;93.80;;;;;;4947891;28;20101;-75
2022/08/06 00:06:16;;;;;;;2.53;0.38;;;14.30;94.10;;;;;;4958784;28;20061;-75
2022/08/06 00:08:43;;;;;;;1.48;0.20;;;14.20;94.20;;;;;;4978297;28;20046;-75
2022/08/06 00:11:13;;;;;;;2.20;0.30;;;14.20;94.20;;;;;;4900905;28;1998262;-75
2022/08/06 00:13:53;;;;;;;2.40;0.25;;;14.20;94.40;;;;;;4951108;28;20084;-75
2022/08/06 00:16:19;;;;;;;2.35;0.30;;;14.30;94.40;;;;;;4975045;28;20046;-75
2022/08/06 00:18:46;;;;;;;2.20;0.40;;;14.20;94.50;;;;;;4961824;28;20541;-75
2022/08/06 00:21:12;;;;;;;1.70;0.20;;;14.20;94.70;;;;;;4962765;28;20049;-75
2022/08/06 00:23:41;;;;;;;1.67;0.25;;;14.20;94.60;;;;;;4944301;28;20042;-75
2022/08/06 00:26:09;;;;;;;2.90;0.40;;;14.20;94.70;;;;;;4962065;28;20046;-75
2022/08/06 00:28:35;;;;;;;0.70;0.20;;;14.20;94.80;;;;;;4978427;28;20066;-75
2022/08/06 00:31:04;;;;;;;3.90;0.30;;;14.20;94.80;;;;;;4949281;28;20069;-75
2022/08/06 00:33:30;;;;;;;1.52;0.30;;;14.20;95.00;;;;;;4979066;28;20046;-75
2022/08/06 00:35:57;;;;;;;1.15;0.20;;;14.20;95.10;;;;;;4958653;28;20023;-75
2022/08/06 00:38:23;;;;;;;1.83;0.30;;;14.20;95.10;;;;;;4960536;28;23065;-74
2022/08/06 00:40:53;;;;;;;0.68;0.20;;;14.20;95.20;;;;;;4948014;28;20037;-75
2022/08/06 00:43:20;;;;;;;2.47;0.30;;;14.20;95.30;;;;;;4978932;28;20426;-74
2022/08/06 00:45:47;;;;;;;1.38;0.43;;;14.20;95.40;;;;;;4966269;28;20058;-75
2022/08/06 00:48:14;;;;;;;1.52;0.20;;;14.20;95.60;;;;;;4986845;28;20401;-75
2022/08/06 00:50:40;;;;;;;2.28;0.30;;;14.10;95.70;;;;;;4985733;28;20509;-75
2022/08/06 00:53:06;;;;;;;3.55;0.32;;;14.10;95.80;;;;;;4989107;28;20121;-75
2022/08/06 00:55:34;;;;;;;3.13;0.40;;;14.10;96.10;;;;;;5000324;28;20380;-75
2022/08/06 00:58:00;;;;;;;2.78;0.40;;;14.10;96.00;;;;;;5020083;28;20021;-75
2022/08/06 01:00:27;;;;;;;3.40;0.75;;;14.10;96.10;;;;;;4988273;28;20025;-75
2022/08/06 01:02:53;;;;;;;4.00;0.30;;;14.10;96.20;;;;;;4985019;28;20823;-75
2022/08/06 01:05:19;;;;;;;2.25;0.30;;;14.10;96.30;;;;;;5000676;28;20045;-75
2022/08/06 01:07:46;;;;;;;2.25;0.20;;;14.00;96.50;;;;;;4987199;28;20049;-75
2022/08/06 01:10:12;;;;;;;2.53;0.30;;;14.00;96.60;;;;;;4986280;28;20364;-78
2022/08/06 01:12:39;;;;;;;2.50;0.40;;;14.00;96.70;;;;;;5021448;28;20037;-77
2022/08/06 01:15:06;;;;;;;2.10;0.30;;;14.00;96.70;;;;;;4982331;28;20025;-78
2022/08/06 01:17:50;;;;;;;2.92;0.45;;;14.00;96.80;;;;;;5021423;28;20029;-78
2022/08/06 01:20:34;;;;;;;2.90;0.20;;;13.90;96.90;;;;;;5005286;28;20494;-78
2022/08/06 01:23:38;;;;;;;3.40;0.40;;;14.00;97.00;;;;;;4988204;28;20038;-78
2022/08/06 01:26:31;;;;;;;2.83;0.40;;;13.90;97.20;;;;;;5019687;28;20060;-75
2022/08/06 01:29:01;;;;;;;2.45;0.43;;;13.90;97.20;;;;;;5021726;28;20480;-75
2022/08/06 01:31:51;;;;;;;2.85;0.30;;;13.90;97.30;;;;;;5019417;28;20026;-75
2022/08/06 01:34:31;;;;;;;4.32;0.30;;;13.90;97.40;;;;;;5015853;28;20028;-75
2022/08/06 01:37:11;;;;;;;2.70;0.38;;;13.90;97.50;;;;;;5019481;28;20404;-75
2022/08/06 01:39:40;;;;;;;2.75;0.20;;;13.90;97.60;;;;;;5000218;28;20029;-75
2022/08/06 01:42:13;;;;;;;3.72;0.40;;;13.90;97.60;;;;;;5001235;28;20021;-75
2022/08/06 01:44:49;;;;;;;2.25;0.20;;;13.90;97.70;;;;;;4990317;28;20046;-75
2022/08/06 01:47:36;;;;;;;2.10;0.50;;;13.90;97.80;;;;;;5005098;28;20034;-74
2022/08/06 01:50:08;;;;;;;1.98;0.30;;;13.80;97.80;;;;;;4988770;28;20033;-75
2022/08/06 01:52:40;;;;;;;3.47;0.40;;;13.80;97.80;;;;;;5020509;28;20377;-78
2022/08/06 01:55:16;;;;;;;6.53;0.70;;;13.80;98.00;;;;;;4999330;28;20041;-78
2022/08/06 01:57:55;;;;;;;2.58;0.32;;;13.80;98.20;;;;;;4985718;28;20018;-78
2022/08/06 02:00:23;;;;;;;2.00;0.20;;;13.70;98.30;;;;;;5019991;28;20020;-78
2022/08/06 02:02:51;;;;;;;3.58;0.50;;;13.70;98.40;;;;;;4989117;28;20133;-78
2022/08/06 02:05:20;;;;;;;4.55;0.55;;;13.70;98.80;;;;;;4984360;28;20036;-78
2022/08/06 02:07:50;;;;;;;1.52;0.30;;;13.70;98.60;;;;;;4970066;28;20037;-78
2022/08/06 02:10:21;;;;;;;3.30;0.40;;;13.70;98.70;;;;;;5005322;28;20021;-78
2022/08/06 02:12:48;;;;;;;2.78;0.43;;;13.60;98.70;;;;;;4988508;28;20025;-78
2022/08/06 02:15:24;;;;;;;1.38;0.22;;;13.60;99.00;;;;;;4986258;28;20037;-78
2022/08/06 02:17:56;;;;;;;3.17;0.50;;;13.50;98.90;;;;;;5020144;28;20010;-78
2022/08/06 02:20:36;;;;;;;2.10;0.30;;;13.50;99.00;;;;;;5004449;28;20024;-78
2022/08/06 02:23:06;;;;;;;3.92;0.30;;;13.50;99.00;;;;;;5004824;28;21101;-78
2022/08/06 02:25:33;;;;;;;2.97;0.40;;;13.50;99.10;;;;;;5022477;28;20025;-78
2022/08/06 02:28:02;;;;;;;3.03;0.52;;;13.50;99.20;;;;;;5018444;28;20076;-78
2022/08/06 02:30:36;;;;;;;2.28;0.32;;;13.50;99.30;;;;;;5020335;28;20024;-78
2022/08/06 02:33:04;;;;;;;3.05;0.40;;;13.40;99.40;;;;;;5020312;28;20018;-78
2022/08/06 02:35:44;;;;;;;4.32;0.40;;;13.40;99.40;;;;;;4998921;28;20025;-78
2022/08/06 02:38:18;;;;;;;2.08;0.70;;;13.40;99.50;;;;;;5002043;28;20033;-78
2022/08/06 02:41:01;;;;;;;1.42;0.30;;;13.40;99.60;;;;;;5018638;28;20467;-78
2022/08/06 02:43:37;;;;;;;1.98;0.40;;;13.30;99.70;;;;;;4986645;28;20037;-78
2022/08/06 02:46:49;;;;;;;1.50;0.35;;;13.30;99.80;;;;;;4984751;28;20480;-78
2022/08/06 02:49:26;;;;;;;2.13;0.40;;;13.20;99.80;;;;;;4944441;28;20066;-78
2022/08/06 02:52:11;;;;;;;3.78;0.40;;;13.20;99.90;;;;;;5018939;28;20041;-78
2022/08/06 02:54:41;;;;;;;2.85;0.40;;;13.10;99.90;;;;;;5021025;28;20461;-78
2022/08/06 02:57:19;;;;;;;1.83;0.40;;;13.10;99.90;;;;;;5020289;28;20034;-78
2022/08/06 02:59:53;;;;;;;2.85;0.55;;;13.10;99.90;;;;;;5004773;28;20041;-78
2022/08/06 03:02:23;;;;;;;4.43;0.50;;;13.00;99.90;;;;;;4989012;28;20044;-78
2022/08/06 03:04:52;;;;;;;2.70;0.50;;;13.00;99.90;;;;;;5023323;28;20052;-78
2022/08/06 03:07:24;;;;;;;4.47;0.47;;;13.00;99.90;;;;;;5004584;28;20042;-78
2022/08/06 03:09:51;;;;;;;3.75;0.70;;;12.90;99.90;;;;;;5004722;28;20026;-77
2022/08/06 03:12:21;;;;;;;2.13;0.40;;;12.90;99.90;;;;;;5023439;28;20017;-78
2022/08/06 03:14:50;;;;;;;3.10;0.50;;;12.90;99.90;;;;;;5002934;28;20022;-78
2022/08/06 03:17:19;;;;;;;5.55;0.50;;;12.80;99.90;;;;;;5024701;28;20033;-78
2022/08/06 03:19:46;;;;;;;3.63;0.50;;;12.80;99.90;;;;;;5005998;28;20086;-78
2022/08/06 03:22:14;;;;;;;2.38;0.40;;;12.80;99.90;;;;;;4976043;28;20025;-78
2022/08/06 03:24:42;;;;;;;4.78;0.70;;;12.80;99.90;;;;;;4973646;28;20052;-78
2022/08/06 03:27:10;;;;;;;3.03;0.70;;;12.80;99.90;;;;;;5004622;28;20033;-78
2022/08/06 03:29:42;;;;;;;2.20;0.40;;;12.70;99.90;;;;;;5023437;28;20022;-78
2022/08/06 03:32:11;;;;;;;0.60;0.30;;;12.70;99.90;;;;;;5007697;28;20033;-78
2022/08/06 03:34:38;;;;;;;2.80;0.40;;;12.70;99.90;;;;;;5003207;28;20021;-78
2022/08/06 03:37:07;;;;;;;3.67;0.50;;;12.70;99.90;;;;;;5005385;28;20697;-78
2022/08/06 03:39:36;;;;;;;3.35;0.40;;;12.70;99.90;;;;;;4987643;28;20025;-78
2022/08/06 03:42:03;;;;;;;1.92;0.60;;;12.70;99.90;;;;;;5023094;28;20030;-78
2022/08/06 03:44:29;;;;;;;2.15;0.30;;;12.70;99.90;;;;;;5002121;28;20056;-78
2022/08/06 03:47:03;;;;;;;2.05;0.52;;;12.70;99.90;;;;;;5024207;28;20401;-78
2022/08/06 03:49:35;;;;;;;3.75;0.40;;;12.70;99.90;;;;;;5021788;28;20503;-78
2022/08/06 03:52:02;;;;;;;0.90;0.30;;;12.70;99.90;;;;;;4987957;28;20426;-78
2022/08/06 03:54:33;;;;;;;2.72;0.40;;;12.70;99.90;;;;;;4986203;28;20045;-78
2022/08/06 03:57:09;;;;;;;2.35;0.77;;;12.70;99.90;;;;;;5002932;28;20033;-78
2022/08/06 03:59:38;;;;;;;3.08;0.40;;;12.70;99.90;;;;;;5003940;28;20053;-78
2022/08/06 04:02:06;;;;;;;3.65;0.85;;;12.70;99.90;;;;;;5006209;28;20017;-78
2022/08/06 04:04:34;;;;;;;2.53;0.60;;;12.70;99.90;;;;;;5000782;28;20037;-78
2022/08/06 04:07:01;;;;;;;2.60;0.50;;;12.60;99.90;;;;;;4987847;28;20500;-78
2022/08/06 04:09:30;;;;;;;3.90;0.50;;;12.60;99.90;;;;;;5022333;28;20022;-78
2022/08/06 04:11:57;;;;;;;3.15;0.43;;;12.60;99.90;;;;;;4987931;28;20048;-78
2022/08/06 04:14:24;;;;;;;1.88;0.43;;;12.60;99.90;;;;;;5003327;28;20030;-78
2022/08/06 04:16:53;;;;;;;2.75;0.40;;;12.60;99.90;;;;;;5005397;28;20033;-78
2022/08/06 04:19:23;;;;;;;1.98;0.38;;;12.60;99.90;;;;;;5019979;28;20037;-78
2022/08/06 04:21:49;;;;;;;3.40;0.50;;;12.60;99.90;;;;;;4987420;28;20044;-74
2022/08/06 04:24:22;;;;;;;2.75;0.50;;;12.50;99.90;;;;;;5020133;28;20347;-75
2022/08/06 04:26:58;;;;;;;2.83;0.60;;;12.60;99.90;;;;;;5002740;28;20045;-75
2022/08/06 04:29:25;;;;;;;1.60;0.40;;;12.60;99.90;;;;;;5003038;28;20037;-75
2022/08/06 04:31:52;;;;;;;2.08;0.40;;;12.60;99.90;;;;;;5004189;28;20021;-75
2022/08/06 04:34:24;;;;;;;1.83;0.40;;;12.60;99.90;;;;;;5001513;28;20424;-75
2022/08/06 04:36:57;;;;;;;1.20;0.40;;;12.60;99.90;;;;;;4986013;28;20045;-74
2022/08/06 04:39:30;;;;;;;1.65;0.30;;;12.60;99.90;;;;;;4986648;28;20029;-74
2022/08/06 04:41:58;;;;;;;2.88;0.40;;;12.70;99.90;;;;;;5003353;28;20034;-74
2022/08/06 04:44:49;;;;;;;1.80;0.32;;;12.70;99.90;;;;;;5018691;28;20033;-78
2022/08/06 04:47:26;;;;;;;2.72;0.40;;;12.80;99.90;;;;;;5004194;28;20369;-78
2022/08/06 04:49:54;;;;;;;1.85;0.50;;;12.90;99.90;;;;;;5005811;28;20033;-78
2022/08/06 04:52:25;;;;;;;2.55;0.40;;;13.00;99.90;;;;;;4986185;28;20017;-78
2022/08/06 04:54:52;;;;;;;3.40;0.35;;;13.10;99.90;;;;;;4984349;28;20030;-78
2022/08/06 04:57:21;;;;;;;2.50;0.30;;;13.20;99.90;;;;;;4970245;28;20022;-78
2022/08/06 04:59:48;;;;;;;2.50;0.45;;;13.30;99.90;;;;;;5003592;28;20041;-78
2022/08/06 05:02:14;;;;;;;2.83;0.60;;;13.40;99.90;;;;;;5006379;28;20539;-78
2022/08/06 05:04:42;;;;;;;2.53;0.38;;;13.50;99.90;;;;;;4985486;28;20021;-78
2022/08/06 05:07:18;;;;;;;1.27;0.38;;;13.70;99.90;;;;;;4986319;28;20041;-75
2022/08/06 05:09:54;;;;;;;3.20;0.40;;;13.80;99.90;;;;;;5002165;28;20017;-74
2022/08/06 05:12:42;;;;;;;2.50;0.30;;;13.90;99.90;;;;;;5018651;28;20369;-75
2022/08/06 05:15:26;;;;;;;0.95;0.20;;;14.10;99.90;;;;;;5003309;28;20465;-77
2022/08/06 05:18:10;;;;;;;2.95;0.40;;;14.30;99.90;;;;;;4987419;28;20034;-76
2022/08/06 05:20:40;;;;;;;1.85;0.40;;;14.60;99.90;;;;;;4986471;28;20025;-77
2022/08/06 05:23:21;;;;;;;1.60;0.30;;;14.70;99.90;;;;;;5004411;28;20029;-76
2022/08/06 05:25:49;;;;;;;1.45;0.20;;;14.90;99.90;;;;;;5018688;28;20028;-76
2022/08/06 05:28:15;;;;;;;1.27;0.30;;;15.10;99.90;;;;;;4970412;28;20029;-77
2022/08/06 05:30:47;;;;;;;2.15;0.40;;;15.40;99.90;;;;;;5019986;28;20013;-75
2022/08/06 05:33:27;;;;;;;1.10;0.30;;;15.60;99.90;;;;;;5017881;28;20021;-75
2022/08/06 05:35:54;;;;;;;2.47;0.30;;;15.90;99.90;;;;;;4986965;28;20025;-75
2022/08/06 05:38:21;;;;;;;2.42;0.40;;;16.00;99.90;;;;;;4990159;28;20461;-75
2022/08/06 05:40:47;;;;;;;3.55;0.30;;;16.20;99.90;;;;;;5023167;28;20025;-76
2022/08/06 05:43:14;;;;;;;1.42;0.52;;;16.40;99.90;;;;;;4987477;28;20037;-75
2022/08/06 05:45:42;;;;;;;1.75;0.52;;;16.60;99.90;;;;;;5017469;28;20037;-76
2022/08/06 05:48:10;;;;;;;2.08;0.30;;;16.60;99.90;;;;;;4986090;28;20053;-75
2022/08/06 05:50:43;;;;;;;1.77;0.40;;;16.80;99.90;;;;;;5020039;28;20020;-75
2022/08/06 05:53:18;;;;;;;1.13;0.47;;;16.90;99.90;;;;;;5022260;28;20017;-77
2022/08/06 05:56:01;;;;;;;1.55;0.40;;;17.00;99.90;;;;;;4988179;28;20036;-78
2022/08/06 05:58:51;;;;;;;2.08;0.35;;;17.20;99.80;;;;;;4986961;28;20409;-78
2022/08/06 06:01:18;;;;;;;2.10;0.30;;;17.00;99.70;;;;;;4988506;28;20385;-78
2022/08/06 06:03:46;;;;;;;1.90;0.47;;;16.80;99.70;;;;;;5005851;28;20021;-75
2022/08/06 06:06:12;;;;;;;1.00;0.32;;;16.80;99.80;;;;;;4999983;28;20029;-76
2022/08/06 06:08:39;;;;;;;2.88;0.40;;;16.90;99.70;;;;;;5020395;28;20013;-75
2022/08/06 06:11:07;;;;;;;2.45;0.40;;;17.10;99.50;;;;;;5004235;28;20036;-76
2022/08/06 06:13:37;;;;;;;3.08;0.40;;;17.20;99.30;;;;;;5001737;28;20025;-75
2022/08/06 06:16:23;;;;;;;1.65;0.45;;;17.40;99.10;;;;;;4982916;28;20509;-75
2022/08/06 06:19:07;;;;;;;1.65;0.35;;;17.50;98.90;;;;;;5000341;28;20503;-77
2022/08/06 06:22:16;;;;;;;2.38;0.30;;;17.70;98.70;;;;;;5022328;28;20458;-78
2022/08/06 06:24:50;;;;;;;1.58;0.45;;;17.90;98.50;;;;;;5002642;28;20044;-77
2022/08/06 06:27:36;;;;;;;3.22;0.50;;;18.00;98.30;;;;;;5003135;28;20499;-77
2022/08/06 06:30:09;;;;;;;3.35;0.75;;;18.20;98.20;;;;;;5004789;28;20034;-77
2022/08/06 06:33:09;;;;;;;3.45;0.77;;;18.40;98.00;;;;;;4991175;28;20026;-77
2022/08/06 06:35:47;;;;;;;1.83;0.50;;;18.80;97.50;;;;;;4996760;28;20410;-77
2022/08/06 06:38:50;;;;;;;1.15;0.30;;;19.20;97.10;;;;;;5024566;28;20041;-76
2022/08/06 06:41:25;;;;;;;2.38;0.45;;;19.70;96.70;;;;;;5025788;28;20041;-76
2022/08/06 06:44:13;;;;;;;0.98;0.32;;;20.00;96.00;;;;;;5025280;28;20017;-75
2022/08/06 06:47:16;;;;;;;2.40;0.40;;;20.00;95.80;;;;;;5021730;28;20046;-75
2022/08/06 06:49:59;;;;;;;1.98;0.30;;;20.00;95.60;;;;;;5023015;28;20041;-75
2022/08/06 06:52:39;;;;;;;2.13;0.50;;;20.10;95.40;;;;;;5022103;28;20017;-75
2022/08/06 06:55:25;;;;;;;3.47;0.65;;;20.30;95.10;;;;;;4985143;28;20457;-75
2022/08/06 06:57:57;;;;;;;3.28;1.00;;;20.60;94.80;;;;;;5002362;28;20025;-75
2022/08/06 07:00:27;;;;;;;1.50;0.60;;;20.90;94.30;;;;;;5003967;28;20131;-76
2022/08/06 07:02:56;;;;;;;1.83;0.60;;;21.10;93.60;;;;;;5024234;28;20030;-76
2022/08/06 07:05:26;;;;;;;1.50;0.40;;;21.00;93.40;;;;;;4990636;28;20434;-78
2022/08/06 07:07:59;;;;;;;1.63;0.47;;;21.00;93.30;;;;;;5024948;28;20056;-77
2022/08/06 07:10:26;;;;;;;3.47;0.50;;;21.00;93.10;;;;;;5022274;28;20042;-77
2022/08/06 07:12:57;;;;;;;4.20;0.63;;;20.90;93.00;;;;;;5003235;28;20017;-77
2022/08/06 07:15:26;;;;;;;1.77;0.40;;;20.80;93.00;;;;;;5018320;28;20017;-77
2022/08/06 07:17:53;;;;;;;2.08;0.60;;;20.70;93.00;;;;;;4976101;28;20049;-78
2022/08/06 07:20:28;;;;;;;1.60;0.30;;;20.60;92.90;;;;;;5025425;28;20436;-78
2022/08/06 07:22:57;;;;;;;1.40;0.30;;;20.60;92.90;;;;;;5026347;28;20477;-78
2022/08/06 07:25:25;;;;;;;2.40;0.30;;;20.60;92.80;;;;;;5004127;28;20038;-78
2022/08/06 07:27:52;;;;;;;1.52;0.30;;;20.70;92.70;;;;;;4991122;28;20041;-78
2022/08/06 07:30:20;;;;;;;2.00;0.30;;;20.80;92.50;;;;;;5005893;28;20027;-78
2022/08/06 07:32:49;;;;;;;1.23;0.30;;;20.90;92.30;;;;;;5007279;28;20034;-78
2022/08/06 07:35:17;;;;;;;0.77;0.20;;;20.90;92.10;;;;;;5009325;28;20037;-78
2022/08/06 07:37:57;;;;;;;1.52;0.30;;;21.00;92.00;;;;;;5007124;28;20034;-78
2022/08/06 07:40:26;;;;;;;2.17;0.75;;;21.10;91.70;;;;;;5024440;28;20489;-78
2022/08/06 07:43:06;;;;;;;3.75;0.50;;;21.10;91.60;;;;;;5025175;28;20033;-79
2022/08/06 07:45:40;;;;;;;1.40;0.20;;;21.10;91.30;;;;;;4987355;28;20030;-78
2022/08/06 07:48:09;;;;;;;1.60;0.40;;;21.10;91.10;;;;;;5008963;28;20504;-78
2022/08/06 07:50:39;;;;;;;1.20;0.20;;;21.10;90.80;;;;;;5006121;28;20026;-78
2022/08/06 07:53:06;;;;;;;1.13;0.20;;;21.20;90.70;;;;;;5025398;28;20750;-78
2022/08/06 07:55:36;;;;;;;1.13;0.20;;;21.30;90.60;;;;;;5023625;28;20033;-78
2022/08/06 07:58:04;;;;;;;1.23;0.20;;;21.40;90.00;;;;;;5007161;28;20045;-78
2022/08/06 08:00:32;;;;;;;1.58;0.20;;;21.50;89.70;;;;;;5007938;28;20393;-78
2022/08/06 08:08:36;;;;;;;1.70;0.30;;;21.70;88.20;;;;;;5027190;28;20040;-78
2022/08/06 08:11:02;;;;;;;1.33;0.25;;;21.80;88.20;;;;;;5011280;28;20026;-78
2022/08/06 08:13:30;;;;;;;1.15;0.30;;;21.90;87.60;;;;;;5027674;28;20945;-78
2022/08/06 08:15:57;;;;;;;1.33;0.20;;;22.00;87.20;;;;;;4990367;28;20408;-78
2022/08/06 08:18:31;;;;;;;2.10;0.45;;;22.20;86.10;;;;;;4991734;28;20045;-78
2022/08/06 08:21:00;;;;;;;1.50;0.20;;;22.20;84.50;;;;;;5003899;28;20056;-78
2022/08/06 08:23:31;;;;;;;2.03;0.22;;;22.30;84.60;;;;;;5000723;28;20048;-78
2022/08/06 08:26:01;;;;;;;1.15;0.10;;;22.50;83.80;;;;;;4989134;28;20029;-78
2022/08/06 08:28:29;;;;;;;1.13;0.20;;;22.50;82.70;;;;;;4989958;28;20029;-79
2022/08/06 08:31:05;;;;;;;1.42;0.22;;;22.60;82.00;;;;;;5006147;28;20088;-79
2022/08/06 08:33:36;;;;;;;1.05;0.20;;;22.70;79.60;;;;;;5004851;28;20467;-79
2022/08/06 08:36:05;;;;;;;0.77;0.20;;;22.80;79.30;;;;;;4988294;28;20041;-79
2022/08/06 08:38:35;;;;;;;1.27;0.20;;;22.90;78.20;;;;;;5005019;28;20040;-78
2022/08/06 08:41:13;;;;;;;0.75;0.20;;;23.10;78.40;;;;;;5007913;28;20044;-79
2022/08/06 08:43:48;;;;;;;1.02;0.20;;;23.30;77.70;;;;;;4987611;28;20056;-78
2022/08/06 08:46:15;;;;;;;3.90;0.30;;;23.40;77.30;;;;;;5021712;28;20036;-78
2022/08/06 08:48:52;;;;;;;0.95;0.30;;;23.60;76.60;;;;;;4992096;28;20030;-79
2022/08/06 08:51:37;;;;;;;1.08;0.30;;;23.70;75.30;;;;;;4990206;28;20377;-78
2022/08/06 08:54:09;;;;;;;0.65;0.20;;;23.90;75.00;;;;;;5004870;28;20034;-78
2022/08/06 08:56:39;;;;;;;0.93;0.33;;;24.10;74.40;;;;;;5021252;28;20029;-78
2022/08/06 08:59:06;;;;;;;1.20;0.25;;;24.30;73.70;;;;;;4988458;28;20270;-79
2022/08/06 09:01:46;;;;;;;1.50;0.20;;;24.60;72.60;;;;;;5022001;28;20045;-79
2022/08/06 09:04:41;;;;;;;1.80;0.20;;;24.70;71.40;;;;;;4981080;28;20037;-78
2022/08/06 09:07:09;;;;;;;1.92;0.35;;;24.80;70.10;;;;;;5021734;28;20029;-79
2022/08/06 09:09:41;;;;;;;3.00;0.30;;;24.80;68.90;;;;;;5021847;28;20735;-78
2022/08/06 09:12:11;;;;;;;3.17;0.20;;;24.80;68.20;;;;;;5002399;28;20041;-75
2022/08/06 09:14:43;;;;;;;1.67;0.30;;;24.60;68.40;;;;;;5017183;28;20872;-75
2022/08/06 09:17:10;;;;;;;0.60;0.20;;;24.60;68.30;;;;;;4990972;28;20029;-75
2022/08/06 09:19:39;;;;;;;1.38;0.47;;;24.70;68.60;;;;;;5018665;28;20026;-75
2022/08/06 09:22:06;;;;;;;1.45;0.20;;;24.80;68.30;;;;;;5020158;28;20025;-76
2022/08/06 09:24:32;;;;;;;4.05;0.30;;;25.00;67.40;;;;;;5000052;28;20040;-75
2022/08/06 09:27:08;;;;;;;1.17;0.40;;;25.00;66.30;;;;;;5002212;28;20052;-75
2022/08/06 09:29:35;;;;;;;2.00;0.22;;;24.90;66.30;;;;;;4985067;28;20060;-75
2022/08/06 09:32:04;;;;;;;0.95;0.30;;;25.00;66.40;;;;;;5022269;28;20028;-75
2022/08/06 09:34:39;;;;;;;1.00;0.20;;;25.10;65.80;;;;;;5017470;28;20496;-76
2022/08/06 09:37:08;;;;;;;2.03;0.30;;;25.20;65.70;;;;;;5019773;28;20465;-76
2022/08/06 09:39:40;;;;;;;1.77;0.20;;;25.30;64.90;;;;;;5001419;28;20029;-75
2022/08/06 09:42:07;;;;;;;1.92;0.30;;;25.30;64.70;;;;;;5002603;28;20021;-79
2022/08/06 09:44:34;;;;;;;1.05;0.32;;;25.30;64.00;;;;;;4999655;28;20029;-76
2022/08/06 09:47:06;;;;;;;1.42;0.20;;;25.30;62.80;;;;;;5021982;28;20056;-76
2022/08/06 09:49:44;;;;;;;0.95;0.20;;;25.30;63.30;;;;;;5002182;28;20025;-75
2022/08/06 09:52:12;;;;;;;2.95;0.50;;;25.30;63.40;;;;;;5010858;28;20046;-75
2022/08/06 09:54:39;;;;;;;1.65;0.40;;;25.50;62.50;;;;;;4998638;28;20030;-77
2022/08/06 09:57:11;;;;;;;1.65;0.50;;;25.70;61.40;;;;;;5007466;28;20024;-78
2022/08/06 09:59:46;;;;;;;0.90;0.20;;;25.80;60.70;;;;;;5009083;28;20037;-78
2022/08/06 10:02:14;;;;;;;0.73;0.30;;;25.60;59.40;;;;;;4980329;28;20089;-78
2022/08/06 10:04:41;;;;;;;0.85;0.20;;;25.40;59.30;;;;;;5024065;28;20033;-78
2022/08/06 10:07:08;;;;;;;1.23;0.13;;;25.50;59.80;;;;;;4989240;28;20031;-78
2022/08/06 10:09:37;;;;;;;0.88;0.20;;;25.70;60.10;;;;;;5006449;28;20041;-78
2022/08/06 10:12:18;;;;;;;0.60;0.20;;;26.30;60.20;;;;;;5007180;28;20060;-78
2022/08/06 10:14:47;;;;;;;1.30;0.20;;;27.00;59.20;;;;;;5006648;28;20045;-77
2022/08/06 10:17:20;;;;;;;1.38;0.20;;;27.40;58.10;;;;;;4993112;28;20505;-77
2022/08/06 10:20:13;;;;;;;1.20;0.10;;;27.60;57.20;;;;;;5009246;28;20030;-78
2022/08/06 10:22:56;;;;;;;1.30;0.38;;;27.30;56.70;;;;;;4975016;28;20030;-78
2022/08/06 10:25:29;;;;;;;1.25;0.28;;;26.80;56.80;;;;;;4973512;28;20053;-77
2022/08/06 10:28:03;;;;;;;0.40;0.20;;;26.40;57.40;;;;;;4990759;28;20029;-78
2022/08/06 10:30:36;;;;;;;0.65;0.25;;;26.00;58.00;;;;;;5007361;28;20028;-78
2022/08/06 10:33:08;;;;;;;0.68;0.20;;;25.60;58.50;;;;;;4991424;28;20022;-77
2022/08/06 10:35:39;;;;;;;1.20;0.30;;;25.20;59.10;;;;;;5023777;28;20029;-80
2022/08/06 10:38:07;;;;;;;0.52;0.20;;;24.90;59.10;;;;;;5008987;28;20041;-77
2022/08/06 10:40:36;;;;;;;0.90;0.20;;;24.70;59.80;;;;;;5026099;28;20037;-77
2022/08/06 10:43:06;;;;;;;1.58;0.50;;;25.00;59.90;;;;;;5006924;28;20046;-78
2022/08/06 10:45:33;;;;;;;1.17;0.30;;;25.40;59.10;;;;;;5022193;28;20048;-78
2022/08/06 10:48:07;;;;;;;1.40;0.40;;;25.60;58.50;;;;;;4989590;28;20478;-79
2022/08/06 10:50:41;;;;;;;1.85;0.57;;;25.80;58.20;;;;;;5007777;28;20057;-78
2022/08/06 10:53:08;;;;;;;;;;;26.30;58.00;;;;;;5007519;28;20046;-78
2022/08/06 10:55:54;;;;;;;1.13;0.30;;;26.60;56.80;;;;;;4992689;28;20399;-78
2022/08/06 10:58:21;;;;;;;1.55;0.22;;;26.50;56.80;;;;;;5022966;28;20025;-78
2022/08/06 11:00:50;;;;;;;1.52;0.50;;;26.40;56.80;;;;;;4991588;28;20045;-77
2022/08/06 11:03:24;;;;;;;1.85;0.20;;;26.10;57.40;;;;;;5024116;28;20036;-77
2022/08/06 11:06:00;;;;;;;1.48;0.30;;;25.80;58.20;;;;;;5003979;28;20424;-77
2022/08/06 11:08:53;;;;;;;1.35;0.30;;;25.60;59.00;;;;;;5026233;28;20128;-77
2022/08/06 11:11:43;;;;;;;0.50;0.20;;;25.30;59.30;;;;;;5025629;28;20045;-81
2022/08/06 11:14:11;;;;;;;0.65;0.20;;;25.20;59.50;;;;;;5023963;28;20031;-77
2022/08/06 11:16:38;;;;;;;0.93;0.32;;;25.80;59.50;;;;;;5022114;28;20033;-78
2022/08/06 11:19:11;;;;;;;1.15;0.38;;;26.60;58.40;;;;;;5004963;28;20034;-78
2022/08/06 11:21:46;;;;;;;0.93;0.30;;;27.40;57.10;;;;;;5023510;28;20036;-78
2022/08/06 11:24:14;;;;;;;1.05;0.30;;;28.20;56.20;;;;;;5019489;28;20495;-78
2022/08/06 11:26:42;;;;;;;1.38;0.30;;;29.00;55.40;;;;;;4987574;28;20044;-78
2022/08/06 11:29:15;;;;;;;0.88;0.20;;;29.70;55.00;;;;;;5007628;28;20037;-79
2022/08/06 11:31:47;;;;;;;0.90;0.30;;;29.70;53.40;;;;;;5020382;28;20495;-78
2022/08/06 11:34:16;;;;;;;1.85;0.20;;;29.10;52.70;;;;;;5003337;28;20033;-78
2022/08/06 11:36:52;;;;;;;1.27;0.35;;;28.40;53.10;;;;;;4987883;28;20460;-78
2022/08/06 11:39:25;;;;;;;1.13;0.28;;;27.60;53.50;;;;;;5005324;28;20377;-78
2022/08/06 11:42:01;;;;;;;1.63;0.63;;;26.90;54.80;;;;;;5022068;28;20033;-78
2022/08/06 11:44:30;;;;;;;1.77;0.32;;;26.40;55.60;;;;;;4989526;28;20559;-78
2022/08/06 11:47:08;;;;;;;3.72;1.45;;;26.10;56.30;;;;;;5023841;28;20029;-79
2022/08/06 11:49:40;;;;;;;4.32;2.25;;;25.70;56.50;;;;;;5022215;28;20017;-78
2022/08/06 11:52:09;;;;;;;2.45;1.40;;;25.40;57.30;;;;;;5004847;28;20017;-78
2022/08/06 11:54:59;;;;;;;2.30;1.27;;;25.20;57.50;;;;;;5020193;28;20022;-78
2022/08/06 11:57:28;;;;;;;1.40;0.80;;;25.00;57.80;;;;;;4977071;28;20025;-78
2022/08/06 11:59:58;;;;;;;1.35;0.38;;;24.90;58.00;;;;;;5005144;28;20042;-78
2022/08/06 12:02:49;;;;;;;0.82;0.30;;;24.90;58.40;;;;;;4994858;28;20041;-78
2022/08/06 12:05:35;;;;;;;2.95;0.40;;;24.70;58.60;;;;;;5004098;28;20029;-79
2022/08/06 12:08:14;;;;;;;1.48;0.68;;;24.70;58.90;;;;;;4990270;28;20053;-78
2022/08/06 12:11:19;;;;;;;1.40;0.70;;;24.80;59.10;;;;;;5022744;28;20036;-78
2022/08/06 12:13:46;;;;;;;2.88;0.70;;;24.90;58.80;;;;;;5023366;28;20029;-78
2022/08/06 12:16:34;;;;;;;1.10;0.40;;;24.90;58.50;;;;;;5005676;28;20369;-77
2022/08/06 12:19:04;;;;;;;0.82;0.30;;;25.00;58.60;;;;;;4986436;28;20364;-78
2022/08/06 12:21:31;;;;;;;1.63;0.75;;;25.00;58.60;;;;;;4988247;28;20025;-78
2022/08/06 12:24:02;;;;;;;1.30;0.40;;;24.90;59.00;;;;;;5004681;28;20040;-78
2022/08/06 12:26:31;;;;;;;1.95;0.40;;;24.80;58.40;;;;;;5003906;28;20068;-78
2022/08/06 12:29:02;;;;;;;0.43;0.20;;;24.80;58.10;;;;;;5005467;28;20040;-78
2022/08/06 12:31:33;;;;;;;2.47;0.20;;;24.70;58.10;;;;;;5023800;28;20025;-78
2022/08/06 12:34:01;;;;;;;0.68;0.30;;;24.60;58.20;;;;;;5022280;28;20021;-78
2022/08/06 12:36:29;;;;;;;1.08;0.43;;;24.70;58.40;;;;;;5021468;28;20036;-78
2022/08/06 12:38:57;;;;;;;1.27;0.30;;;24.70;58.30;;;;;;5003608;28;20036;-78
2022/08/06 12:41:33;;;;;;;1.42;0.30;;;24.80;58.50;;;;;;4990778;28;20041;-78
2022/08/06 12:43:59;;;;;;;1.25;0.30;;;25.20;57.40;;;;;;5024134;28;20101;-78
2022/08/06 12:46:27;;;;;;;1.75;0.40;;;25.40;57.30;;;;;;5019641;28;20492;-75
2022/08/06 12:48:54;;;;;;;1.48;0.25;;;26.80;57.10;;;;;;5002993;28;20354;-76
2022/08/06 12:51:21;;;;;;;0.73;0.20;;;28.70;55.30;;;;;;5002738;28;20463;-75
2022/08/06 12:54:02;;;;;;;2.83;0.30;;;30.40;52.40;;;;;;5003222;28;20048;-75
2022/08/06 12:56:38;;;;;;;0.32;0.20;;;31.50;48.70;;;;;;5020453;28;20376;-76
2022/08/06 12:59:37;;;;;;;2.22;0.30;;;32.30;47.70;;;;;;5022409;28;20041;-76
2022/08/06 13:02:04;;;;;;;1.13;0.40;;;33.20;46.20;;;;;;4987539;28;20503;-76
2022/08/06 13:04:30;;;;;;;1.05;0.30;;;33.30;45.80;;;;;;5019261;28;20095;-78
2022/08/06 13:07:04;;;;;;;0.95;0.20;;;33.10;45.50;;;;;;5003343;28;20378;-79
2022/08/06 13:09:34;;;;;;;0.63;0.30;;;32.20;45.60;;;;;;4987580;28;20044;-78
2022/08/06 13:12:19;;;;;;;0.88;0.30;;;31.00;46.20;;;;;;5006812;28;20057;-78
2022/08/06 13:14:59;;;;;;;1.95;0.30;;;29.70;47.60;;;;;;5002531;28;20025;-78
2022/08/06 13:17:26;;;;;;;0.85;0.30;;;28.70;48.60;;;;;;5005937;28;20380;-78
2022/08/06 13:19:58;;;;;;;1.13;0.20;;;27.90;49.90;;;;;;4987535;28;20152;-78
2022/08/06 13:22:25;;;;;;;0.70;0.20;;;27.40;50.30;;;;;;5003285;28;20068;-78